sensor_id;sensor_type;location;lat;lon;timestamp;pressure;altitude;pressure_sealevel;temperature;humidity
48874;BME280;66155;46.204;5.220;2023-03-01T00:04:40;99111.44;;;-0.17;61.97
48874;BME280;66155;46.204;5.220;2023-03-01T00:09:40;99112.06;;;-0.15;62.81
48874;BME280;66155;46.204;5.220;2023-03-01T00:14:41;99105.81;;;-0.12;62.12
48874;BME280;66155;46.204;5.220;2023-03-01T00:19:41;99112.03;;;-0.07;62.37
48874;BME280;66155;46.204;5.220;2023-03-01T00:24:42;99102.09;;;-0.10;61.78
48874;BME280;66155;46.204;5.220;2023-03-01T00:29:42;99102.59;;;-0.14;61.87
48874;BME280;66155;46.204;5.220;2023-03-01T00:34:42;99105.00;;;-0.13;61.89
48874;BME280;66155;46.204;5.220;2023-03-01T00:39:54;99101.03;;;-0.15;61.76
48874;BME280;66155;46.204;5.220;2023-03-01T00:44:54;99110.94;;;-0.12;62.48
48874;BME280;66155;46.204;5.220;2023-03-01T00:49:55;99110.75;;;-0.11;61.80
48874;BME280;66155;46.204;5.220;2023-03-01T00:54:55;99109.16;;;-0.12;62.26
48874;BME280;66155;46.204;5.220;2023-03-01T00:59:56;99097.00;;;-0.10;62.08
48874;BME280;66155;46.204;5.220;2023-03-01T01:04:57;99101.47;;;-0.12;62.45
48874;BME280;66155;46.204;5.220;2023-03-01T01:09:57;99083.03;;;-0.07;61.82
48874;BME280;66155;46.204;5.220;2023-03-01T01:14:58;99088.16;;;-0.07;61.78
48874;BME280;66155;46.204;5.220;2023-03-01T01:19:58;99079.22;;;-0.11;62.18
48874;BME280;66155;46.204;5.220;2023-03-01T01:25:00;99076.19;;;-0.15;61.91
48874;BME280;66155;46.204;5.220;2023-03-01T01:30:00;99056.56;;;-0.23;62.21
48874;BME280;66155;46.204;5.220;2023-03-01T01:35:01;99057.56;;;-0.32;62.57
48874;BME280;66155;46.204;5.220;2023-03-01T01:40:01;99053.41;;;-0.41;62.86
48874;BME280;66155;46.204;5.220;2023-03-01T01:45:33;99043.22;;;-0.49;62.81
48874;BME280;66155;46.204;5.220;2023-03-01T01:50:35;99043.56;;;-0.52;62.81
48874;BME280;66155;46.204;5.220;2023-03-01T01:55:42;99033.28;;;-0.44;62.43
48874;BME280;66155;46.204;5.220;2023-03-01T02:00:45;99039.06;;;-0.50;62.70
48874;BME280;66155;46.204;5.220;2023-03-01T02:10:55;99029.19;;;-0.62;62.76
48874;BME280;66155;46.204;5.220;2023-03-01T02:15:57;99026.50;;;-0.68;62.99
48874;BME280;66155;46.204;5.220;2023-03-01T02:21:30;99025.72;;;-0.77;63.24
48874;BME280;66155;46.204;5.220;2023-03-01T02:26:45;99014.03;;;-0.71;63.07
48874;BME280;66155;46.204;5.220;2023-03-01T02:31:47;99004.41;;;-0.69;62.94
48874;BME280;66155;46.204;5.220;2023-03-01T02:36:56;98998.19;;;-0.75;62.65
48874;BME280;66155;46.204;5.220;2023-03-01T02:41:57;98995.34;;;-0.80;63.03
48874;BME280;66155;46.204;5.220;2023-03-01T02:47:01;98995.34;;;-0.80;62.93
48874;BME280;66155;46.204;5.220;2023-03-01T02:57:22;98985.41;;;-0.75;62.67
48874;BME280;66155;46.204;5.220;2023-03-01T03:02:26;98971.34;;;-0.71;63.39
48874;BME280;66155;46.204;5.220;2023-03-01T03:07:37;98968.31;;;-0.74;63.11
48874;BME280;66155;46.204;5.220;2023-03-01T03:12:39;98964.63;;;-0.72;62.98
48874;BME280;66155;46.204;5.220;2023-03-01T03:17:41;98970.81;;;-0.66;62.30
48874;BME280;66155;46.204;5.220;2023-03-01T03:22:42;98966.34;;;-0.64;62.51
48874;BME280;66155;46.204;5.220;2023-03-01T03:27:44;98963.13;;;-0.58;62.23
48874;BME280;66155;46.204;5.220;2023-03-01T03:32:46;98967.00;;;-0.62;62.62
48874;BME280;66155;46.204;5.220;2023-03-01T03:37:52;98957.25;;;-0.67;62.46
48874;BME280;66155;46.204;5.220;2023-03-01T03:43:07;98958.09;;;-0.74;62.86
48874;BME280;66155;46.204;5.220;2023-03-01T03:48:09;98958.19;;;-0.68;62.56
48874;BME280;66155;46.204;5.220;2023-03-01T03:53:11;98951.97;;;-0.65;62.86
48874;BME280;66155;46.204;5.220;2023-03-01T03:58:12;98951.81;;;-0.64;62.94
48874;BME280;66155;46.204;5.220;2023-03-01T04:03:14;98949.41;;;-0.65;62.52
48874;BME280;66155;46.204;5.220;2023-03-01T04:08:15;98952.72;;;-0.56;62.19
48874;BME280;66155;46.204;5.220;2023-03-01T04:13:18;98950.16;;;-0.56;62.22
48874;BME280;66155;46.204;5.220;2023-03-01T04:18:22;98945.66;;;-0.54;62.13
48874;BME280;66155;46.204;5.220;2023-03-01T04:23:23;98941.97;;;-0.52;62.17
48874;BME280;66155;46.204;5.220;2023-03-01T04:28:27;98930.38;;;-0.40;61.94
48874;BME280;66155;46.204;5.220;2023-03-01T04:33:28;98937.50;;;-0.27;61.66
48874;BME280;66155;46.204;5.220;2023-03-01T04:38:28;98942.63;;;-0.27;61.71
48874;BME280;66155;46.204;5.220;2023-03-01T04:43:29;98950.81;;;-0.31;62.41
48874;BME280;66155;46.204;5.220;2023-03-01T04:48:30;98944.22;;;-0.26;62.20
48874;BME280;66155;46.204;5.220;2023-03-01T04:53:32;98942.56;;;-0.18;62.18
48874;BME280;66155;46.204;5.220;2023-03-01T04:58:32;98939.16;;;-0.11;61.83
48874;BME280;66155;46.204;5.220;2023-03-01T05:03:33;98937.44;;;-0.18;61.80
48874;BME280;66155;46.204;5.220;2023-03-01T05:08:33;98935.75;;;-0.26;61.93
48874;BME280;66155;46.204;5.220;2023-03-01T05:13:39;98925.69;;;-0.28;61.87
48874;BME280;66155;46.204;5.220;2023-03-01T05:18:40;98925.50;;;-0.26;61.85
48874;BME280;66155;46.204;5.220;2023-03-01T05:23:41;98927.78;;;-0.31;62.21
48874;BME280;66155;46.204;5.220;2023-03-01T05:28:41;98927.66;;;-0.38;62.00
48874;BME280;66155;46.204;5.220;2023-03-01T05:33:42;98928.91;;;-0.34;62.00
48874;BME280;66155;46.204;5.220;2023-03-01T05:38:43;98931.41;;;-0.26;62.21
48874;BME280;66155;46.204;5.220;2023-03-01T05:43:44;98935.63;;;-0.33;62.09
48874;BME280;66155;46.204;5.220;2023-03-01T05:48:45;98936.47;;;-0.41;62.67
48874;BME280;66155;46.204;5.220;2023-03-01T05:53:45;98933.22;;;-0.34;61.91
48874;BME280;66155;46.204;5.220;2023-03-01T05:58:48;98931.19;;;-0.39;62.19
48874;BME280;66155;46.204;5.220;2023-03-01T06:03:48;98935.72;;;-0.49;62.22
48874;BME280;66155;46.204;5.220;2023-03-01T06:08:49;98935.47;;;-0.63;62.39
48874;BME280;66155;46.204;5.220;2023-03-01T06:13:50;98935.47;;;-0.63;62.53
48874;BME280;66155;46.204;5.220;2023-03-01T06:18:50;98932.91;;;-0.63;62.19
48874;BME280;66155;46.204;5.220;2023-03-01T06:23:51;98937.84;;;-0.61;62.10
48874;BME280;66155;46.204;5.220;2023-03-01T06:28:52;98932.25;;;-0.56;62.01
48874;BME280;66155;46.204;5.220;2023-03-01T06:33:52;98918.75;;;-0.50;61.81
48874;BME280;66155;46.204;5.220;2023-03-01T06:38:53;98929.44;;;-0.39;61.87
48874;BME280;66155;46.204;5.220;2023-03-01T06:43:53;98925.50;;;-0.26;61.67
48874;BME280;66155;46.204;5.220;2023-03-01T06:48:54;98929.66;;;-0.25;61.64
48874;BME280;66155;46.204;5.220;2023-03-01T06:53:55;98927.50;;;-0.36;61.86
48874;BME280;66155;46.204;5.220;2023-03-01T06:58:55;98928.91;;;-0.34;62.29
48874;BME280;66155;46.204;5.220;2023-03-01T07:03:56;98926.31;;;-0.26;62.18
48874;BME280;66155;46.204;5.220;2023-03-01T07:08:57;98935.50;;;-0.16;61.66
48874;BME280;66155;46.204;5.220;2023-03-01T07:13:57;98924.59;;;-0.10;61.54
48874;BME280;66155;46.204;5.220;2023-03-01T07:19:00;98926.19;;;-0.09;61.74
48874;BME280;66155;46.204;5.220;2023-03-01T07:24:00;98920.09;;;-0.08;61.92
48874;BME280;66155;46.204;5.220;2023-03-01T07:29:03;98922.19;;;0.11;61.37
48874;BME280;66155;46.204;5.220;2023-03-01T07:34:04;98927.94;;;0.13;61.42
48874;BME280;66155;46.204;5.220;2023-03-01T07:39:05;98910.91;;;0.21;61.29
48874;BME280;66155;46.204;5.220;2023-03-01T07:44:05;98914.34;;;0.28;61.21
48874;BME280;66155;46.204;5.220;2023-03-01T07:49:06;98917.81;;;0.35;61.06
48874;BME280;66155;46.204;5.220;2023-03-01T07:54:06;98920.56;;;0.33;61.12
48874;BME280;66155;46.204;5.220;2023-03-01T07:59:07;98927.28;;;0.34;60.93
48874;BME280;66155;46.204;5.220;2023-03-01T08:04:08;98919.31;;;0.44;61.21
48874;BME280;66155;46.204;5.220;2023-03-01T08:09:08;98921.53;;;0.47;60.85
48874;BME280;66155;46.204;5.220;2023-03-01T08:14:09;98911.56;;;0.37;60.65
48874;BME280;66155;46.204;5.220;2023-03-01T08:19:12;98916.31;;;0.26;60.92
48874;BME280;66155;46.204;5.220;2023-03-01T08:24:12;98912.06;;;0.33;61.15
48874;BME280;66155;46.204;5.220;2023-03-01T08:29:13;98917.66;;;0.36;61.09
48874;BME280;66155;46.204;5.220;2023-03-01T08:34:15;98916.41;;;0.47;60.92
48874;BME280;66155;46.204;5.220;2023-03-01T08:39:17;98916.69;;;0.52;61.06
48874;BME280;66155;46.204;5.220;2023-03-01T08:44:19;98916.25;;;0.64;60.78
48874;BME280;66155;46.204;5.220;2023-03-01T08:49:21;98917.06;;;0.79;60.45
48874;BME280;66155;46.204;5.220;2023-03-01T08:54:22;98913.97;;;0.84;60.71
48874;BME280;66155;46.204;5.220;2023-03-01T08:59:22;98902.53;;;1.01;60.52
48874;BME280;66155;46.204;5.220;2023-03-01T09:04:23;98897.84;;;1.05;60.17
48874;BME280;66155;46.204;5.220;2023-03-01T09:09:23;98910.16;;;0.94;60.63
48874;BME280;66155;46.204;5.220;2023-03-01T09:14:24;98904.91;;;1.03;60.57
48874;BME280;66155;46.204;5.220;2023-03-01T09:19:24;98906.88;;;1.16;60.36
48874;BME280;66155;46.204;5.220;2023-03-01T09:24:25;98899.84;;;1.24;59.74
48874;BME280;66155;46.204;5.220;2023-03-01T09:29:25;98898.66;;;1.42;59.89
48874;BME280;66155;46.204;5.220;2023-03-01T09:34:26;98897.75;;;1.49;59.44
48874;BME280;66155;46.204;5.220;2023-03-01T09:39:27;98901.91;;;1.72;59.43
48874;BME280;66155;46.204;5.220;2023-03-01T09:49:33;98887.56;;;1.78;59.12
48874;BME280;66155;46.204;5.220;2023-03-01T09:54:35;98883.97;;;2.00;59.18
48874;BME280;66155;46.204;5.220;2023-03-01T10:05:36;98884.97;;;2.62;57.91
48874;BME280;66155;46.204;5.220;2023-03-01T10:10:39;98878.31;;;2.75;58.07
48874;BME280;66155;46.204;5.220;2023-03-01T10:15:47;98880.56;;;2.50;57.94
48874;BME280;66155;46.204;5.220;2023-03-01T10:21:00;98877.44;;;2.61;58.52
48874;BME280;66155;46.204;5.220;2023-03-01T10:31:13;98866.59;;;2.65;58.04
48874;BME280;66155;46.204;5.220;2023-03-01T10:36:14;98863.28;;;2.78;57.95
48874;BME280;66155;46.204;5.220;2023-03-01T10:41:15;98844.19;;;3.01;57.68
48874;BME280;66155;46.204;5.220;2023-03-01T10:46:33;98849.25;;;2.81;57.96
48874;BME280;66155;46.204;5.220;2023-03-01T10:51:33;98840.19;;;2.92;57.60
48874;BME280;66155;46.204;5.220;2023-03-01T10:56:52;98844.03;;;3.09;57.37
48874;BME280;66155;46.204;5.220;2023-03-01T11:07:02;98843.66;;;3.39;56.96
48874;BME280;66155;46.204;5.220;2023-03-01T11:12:05;98835.38;;;3.57;57.07
48874;BME280;66155;46.204;5.220;2023-03-01T11:17:17;98823.09;;;3.79;56.92
48874;BME280;66155;46.204;5.220;2023-03-01T11:22:22;98821.91;;;3.61;57.16
48874;BME280;66155;46.204;5.220;2023-03-01T11:27:28;98807.84;;;3.71;56.72
48874;BME280;66155;46.204;5.220;2023-03-01T11:32:43;98807.81;;;3.97;56.65
48874;BME280;66155;46.204;5.220;2023-03-01T11:48:36;98789.00;;;4.04;56.31
48874;BME280;66155;46.204;5.220;2023-03-01T11:54:06;98781.97;;;4.31;55.89
48874;BME280;66155;46.204;5.220;2023-03-01T11:59:30;98780.56;;;4.35;55.73
48874;BME280;66155;46.204;5.220;2023-03-01T12:31:36;98733.66;;;5.47;53.26
48874;BME280;66155;46.204;5.220;2023-03-01T12:47:20;98708.28;;;5.62;52.66
48874;BME280;66155;46.204;5.220;2023-03-01T12:52:49;98713.84;;;5.16;53.22
48874;BME280;66155;46.204;5.220;2023-03-01T13:03:36;98702.50;;;5.67;52.83
48874;BME280;66155;46.204;5.220;2023-03-01T13:19:27;98706.56;;;5.75;51.73
48874;BME280;66155;46.204;5.220;2023-03-01T13:24:42;98692.88;;;6.11;52.16
48874;BME280;66155;46.204;5.220;2023-03-01T13:29:56;98692.03;;;7.55;48.27
48874;BME280;66155;46.204;5.220;2023-03-01T13:34:59;98688.41;;;7.33;49.68
48874;BME280;66155;46.204;5.220;2023-03-01T13:45:42;98664.47;;;9.83;43.22
48874;BME280;66155;46.204;5.220;2023-03-01T13:50:53;98668.56;;;10.23;41.60
48874;BME280;66155;46.204;5.220;2023-03-01T13:56:00;98672.13;;;9.17;45.18
48874;BME280;66155;46.204;5.220;2023-03-01T14:01:04;98664.94;;;13.91;37.56
48874;BME280;66155;46.204;5.220;2023-03-01T14:06:25;98639.66;;;16.34;32.87
48874;BME280;66155;46.204;5.220;2023-03-01T14:21:46;98653.81;;;10.56;39.10
48874;BME280;66155;46.204;5.220;2023-03-01T14:26:49;98637.00;;;12.02;38.03
48874;BME280;66155;46.204;5.220;2023-03-01T14:31:50;98626.28;;;14.57;33.11
48874;BME280;66155;46.204;5.220;2023-03-01T14:36:50;98616.91;;;13.46;35.08
48874;BME280;66155;46.204;5.220;2023-03-01T14:41:51;98625.31;;;10.76;38.66
48874;BME280;66155;46.204;5.220;2023-03-01T14:46:54;98628.25;;;10.03;40.27
48874;BME280;66155;46.204;5.220;2023-03-01T14:57:00;98628.31;;;9.64;41.18
48874;BME280;66155;46.204;5.220;2023-03-01T15:02:01;98632.94;;;9.01;41.83
48874;BME280;66155;46.204;5.220;2023-03-01T15:07:02;98639.06;;;8.32;43.08
48874;BME280;66155;46.204;5.220;2023-03-01T15:17:37;98637.13;;;8.11;43.84
48874;BME280;66155;46.204;5.220;2023-03-01T15:22:42;98628.34;;;8.57;42.97
48874;BME280;66155;46.204;5.220;2023-03-01T15:27:50;98619.88;;;8.96;42.84
48874;BME280;66155;46.204;5.220;2023-03-01T15:33:17;98619.72;;;9.03;42.91
48874;BME280;66155;46.204;5.220;2023-03-01T15:43:51;98640.53;;;7.99;44.15
48874;BME280;66155;46.204;5.220;2023-03-01T15:48:59;98637.41;;;7.86;44.55
48874;BME280;66155;46.204;5.220;2023-03-01T15:54:08;98636.44;;;7.63;45.11
48874;BME280;66155;46.204;5.220;2023-03-01T15:59:13;98650.31;;;7.33;45.68
48874;BME280;66155;46.204;5.220;2023-03-01T16:04:16;98658.09;;;7.10;46.10
48874;BME280;66155;46.204;5.220;2023-03-01T16:09:24;98663.72;;;6.95;45.93
48874;BME280;66155;46.204;5.220;2023-03-01T16:14:25;98663.91;;;6.81;46.02
48874;BME280;66155;46.204;5.220;2023-03-01T16:19:25;98657.03;;;6.75;46.65
48874;BME280;66155;46.204;5.220;2023-03-01T16:24:25;98662.94;;;6.64;46.54
48874;BME280;66155;46.204;5.220;2023-03-01T16:29:26;98662.72;;;6.65;46.86
48874;BME280;66155;46.204;5.220;2023-03-01T16:34:27;98665.06;;;6.55;46.91
48874;BME280;66155;46.204;5.220;2023-03-01T16:39:27;98658.63;;;6.46;47.34
48874;BME280;66155;46.204;5.220;2023-03-01T16:44:28;98653.53;;;6.39;47.66
48874;BME280;66155;46.204;5.220;2023-03-01T16:49:28;98642.44;;;6.20;48.34
48874;BME280;66155;46.204;5.220;2023-03-01T16:54:29;98645.72;;;5.97;49.32
48874;BME280;66155;46.204;5.220;2023-03-01T16:59:29;98646.19;;;5.87;49.60
48874;BME280;66155;46.204;5.220;2023-03-01T17:04:30;98663.00;;;5.78;50.47
48874;BME280;66155;46.204;5.220;2023-03-01T17:09:34;98647.34;;;5.73;50.71
48874;BME280;66155;46.204;5.220;2023-03-01T17:14:34;98648.06;;;5.62;51.15
48874;BME280;66155;46.204;5.220;2023-03-01T17:19:35;98657.81;;;5.60;51.20
48874;BME280;66155;46.204;5.220;2023-03-01T17:24:40;98649.09;;;5.54;51.46
48874;BME280;66155;46.204;5.220;2023-03-01T17:29:41;98660.69;;;5.51;51.22
48874;BME280;66155;46.204;5.220;2023-03-01T17:34:41;98656.50;;;5.50;52.06
48874;BME280;66155;46.204;5.220;2023-03-01T17:39:42;98666.69;;;5.45;52.15
48874;BME280;66155;46.204;5.220;2023-03-01T17:44:42;98672.28;;;5.42;52.38
48874;BME280;66155;46.204;5.220;2023-03-01T17:49:43;98677.31;;;5.37;52.52
48874;BME280;66155;46.204;5.220;2023-03-01T17:54:43;98671.19;;;5.31;52.68
48874;BME280;66155;46.204;5.220;2023-03-01T17:59:44;98669.41;;;5.32;52.64
48874;BME280;66155;46.204;5.220;2023-03-01T18:04:45;98685.75;;;5.26;52.72
48874;BME280;66155;46.204;5.220;2023-03-01T18:09:45;98696.22;;;5.31;52.69
48874;BME280;66155;46.204;5.220;2023-03-01T18:14:46;98689.50;;;5.30;52.93
48874;BME280;66155;46.204;5.220;2023-03-01T18:19:47;98695.22;;;5.32;52.67
48874;BME280;66155;46.204;5.220;2023-03-01T18:24:48;98695.81;;;5.34;53.28
48874;BME280;66155;46.204;5.220;2023-03-01T18:29:48;98693.38;;;5.39;52.86
48874;BME280;66155;46.204;5.220;2023-03-01T18:34:49;98711.31;;;5.34;53.22
48874;BME280;66155;46.204;5.220;2023-03-01T18:39:51;98712.03;;;5.41;52.63
48874;BME280;66155;46.204;5.220;2023-03-01T18:44:51;98701.66;;;5.48;52.71
48874;BME280;66155;46.204;5.220;2023-03-01T18:49:53;98706.47;;;5.44;53.00
48874;BME280;66155;46.204;5.220;2023-03-01T18:54:53;98706.88;;;5.41;52.94
48874;BME280;66155;46.204;5.220;2023-03-01T18:59:54;98709.47;;;5.41;52.83
48874;BME280;66155;46.204;5.220;2023-03-01T19:04:54;98700.78;;;5.36;53.22
48874;BME280;66155;46.204;5.220;2023-03-01T19:09:55;98700.97;;;5.34;52.90
48874;BME280;66155;46.204;5.220;2023-03-01T19:14:55;98696.66;;;5.28;53.25
48874;BME280;66155;46.204;5.220;2023-03-01T19:19:56;98702.41;;;5.30;53.25
48874;BME280;66155;46.204;5.220;2023-03-01T19:24:57;98699.09;;;5.23;53.31
48874;BME280;66155;46.204;5.220;2023-03-01T19:29:58;98691.53;;;5.21;53.42
48874;BME280;66155;46.204;5.220;2023-03-01T19:34:58;98693.13;;;5.22;53.14
48874;BME280;66155;46.204;5.220;2023-03-01T19:39:59;98685.81;;;5.19;53.56
48874;BME280;66155;46.204;5.220;2023-03-01T19:45:00;98681.94;;;5.28;52.95
48874;BME280;66155;46.204;5.220;2023-03-01T19:50:00;98690.69;;;5.27;53.25
48874;BME280;66155;46.204;5.220;2023-03-01T19:55:01;98675.63;;;5.24;53.47
48874;BME280;66155;46.204;5.220;2023-03-01T20:00:02;98684.75;;;5.27;53.06
48874;BME280;66155;46.204;5.220;2023-03-01T20:05:03;98681.59;;;5.25;53.09
48874;BME280;66155;46.204;5.220;2023-03-01T20:10:03;98684.31;;;5.30;52.97
48874;BME280;66155;46.204;5.220;2023-03-01T20:15:05;98680.81;;;5.24;53.20
48874;BME280;66155;46.204;5.220;2023-03-01T20:20:06;98666.13;;;5.18;53.18
48874;BME280;66155;46.204;5.220;2023-03-01T20:25:07;98660.59;;;5.14;53.30
48874;BME280;66155;46.204;5.220;2023-03-01T20:30:08;98661.63;;;5.13;53.24
48874;BME280;66155;46.204;5.220;2023-03-01T20:35:09;98652.84;;;5.14;53.08
48874;BME280;66155;46.204;5.220;2023-03-01T20:40:11;98663.88;;;5.03;53.39
48874;BME280;66155;46.204;5.220;2023-03-01T20:45:12;98658.34;;;5.00;53.58
48874;BME280;66155;46.204;5.220;2023-03-01T20:50:12;98647.91;;;4.88;53.71
48874;BME280;66155;46.204;5.220;2023-03-01T20:55:13;98642.84;;;4.74;54.00
48874;BME280;66155;46.204;5.220;2023-03-01T21:00:13;98641.34;;;4.60;54.49
48874;BME280;66155;46.204;5.220;2023-03-01T21:05:14;98631.69;;;4.49;54.51
48874;BME280;66155;46.204;5.220;2023-03-01T21:10:15;98621.22;;;4.37;54.19
48874;BME280;66155;46.204;5.220;2023-03-01T21:15:15;98630.19;;;4.28;54.71
48874;BME280;66155;46.204;5.220;2023-03-01T21:20:18;98616.44;;;4.09;55.28
48874;BME280;66155;46.204;5.220;2023-03-01T21:25:18;98617.25;;;3.96;55.40
48874;BME280;66155;46.204;5.220;2023-03-01T21:30:19;98622.47;;;3.89;54.90
48874;BME280;66155;46.204;5.220;2023-03-01T21:35:19;98625.44;;;3.86;55.35
48874;BME280;66155;46.204;5.220;2023-03-01T21:40:20;98639.88;;;3.87;55.38
48874;BME280;66155;46.204;5.220;2023-03-01T21:45:21;98637.53;;;3.86;55.28
48874;BME280;66155;46.204;5.220;2023-03-01T21:50:21;98635.94;;;3.85;55.21
48874;BME280;66155;46.204;5.220;2023-03-01T21:55:22;98643.28;;;3.81;54.84
48874;BME280;66155;46.204;5.220;2023-03-01T22:00:22;98635.00;;;3.72;55.45
48874;BME280;66155;46.204;5.220;2023-03-01T22:05:23;98639.75;;;3.69;55.28
48874;BME280;66155;46.204;5.220;2023-03-01T22:10:23;98637.78;;;3.71;55.05
48874;BME280;66155;46.204;5.220;2023-03-01T22:15:26;98640.16;;;3.66;55.04
48874;BME280;66155;46.204;5.220;2023-03-01T22:20:26;98630.69;;;3.59;55.32
48874;BME280;66155;46.204;5.220;2023-03-01T22:25:27;98627.91;;;3.54;55.08
48874;BME280;66155;46.204;5.220;2023-03-01T22:30:28;98628.31;;;3.45;55.54
48874;BME280;66155;46.204;5.220;2023-03-01T22:35:28;98618.63;;;3.40;55.71
48874;BME280;66155;46.204;5.220;2023-03-01T22:40:29;98622.41;;;3.31;56.02
48874;BME280;66155;46.204;5.220;2023-03-01T22:45:30;98616.25;;;3.25;55.96
48874;BME280;66155;46.204;5.220;2023-03-01T22:50:31;98625.38;;;3.28;55.99
48874;BME280;66155;46.204;5.220;2023-03-01T22:55:32;98628.16;;;3.33;56.03
48874;BME280;66155;46.204;5.220;2023-03-01T23:00:32;98632.09;;;3.35;55.53
48874;BME280;66155;46.204;5.220;2023-03-01T23:05:33;98635.84;;;3.46;55.95
48874;BME280;66155;46.204;5.220;2023-03-01T23:10:38;98621.97;;;3.47;55.35
48874;BME280;66155;46.204;5.220;2023-03-01T23:15:39;98631.69;;;3.52;55.47
48874;BME280;66155;46.204;5.220;2023-03-01T23:20:43;98624.75;;;3.52;55.37
48874;BME280;66155;46.204;5.220;2023-03-01T23:25:55;98625.53;;;3.46;55.81
48874;BME280;66155;46.204;5.220;2023-03-01T23:30:58;98621.59;;;3.37;56.00
48874;BME280;66155;46.204;5.220;2023-03-01T23:35:59;98617.47;;;3.22;56.11
48874;BME280;66155;46.204;5.220;2023-03-01T23:41:02;98613.91;;;3.03;56.52
48874;BME280;66155;46.204;5.220;2023-03-01T23:46:02;98606.78;;;2.92;56.13
48874;BME280;66155;46.204;5.220;2023-03-01T23:51:03;98617.28;;;2.84;56.50
48874;BME280;66155;46.204;5.220;2023-03-01T23:56:04;98629.16;;;2.78;56.42
